Time;durP1;ratioP1;P1;durP2;ratioP2;P2;SDS_P1;SDS_P2;PMS_P1;PMS_P2;Temp;Humidity;BMP_temperature;BMP_pressure;BME280_temperature;BME280_humidity;BME280_pressure;Samples;Min_cycle;Max_cycle;Signal;HPM_P1;HPM_P2
2022/03/26 00:02:59;;;;;;;40.70;23.60;;;;;;;7.71;50.14;101012.09;130268;1270;99650;-72
2022/03/26 00:06:01;;;;;;;42.30;24.20;;;;;;;7.68;50.77;101009.83;130454;1270;98002;-71
2022/03/26 00:09:04;;;;;;;44.50;24.40;;;;;;;7.67;50.61;101005.64;130286;1270;99235;-73
2022/03/26 00:12:09;;;;;;;41.70;24.30;;;;;;;7.65;50.46;101004.05;130306;1271;98058;-72
2022/03/26 00:15:12;;;;;;;41.00;24.50;;;;;;;7.62;50.78;101001.96;130294;1270;97953;-73
2022/03/26 00:18:17;;;;;;;46.90;23.10;;;;;;;7.61;51.26;101001.16;130189;1270;98633;-72
2022/03/26 00:21:20;;;;;;;42.70;24.00;;;;;;;7.59;50.94;100997.77;130287;1270;97978;-71
2022/03/26 00:24:23;;;;;;;42.80;24.00;;;;;;;7.56;50.85;100993.53;130137;1269;187399;-71
2022/03/26 00:27:26;;;;;;;42.00;24.30;;;;;;;7.55;51.10;100986.94;130264;1270;98174;-71
2022/03/26 00:30:28;;;;;;;43.90;23.80;;;;;;;7.53;51.95;100988.83;130065;1271;99181;-72
2022/03/26 00:33:32;;;;;;;43.30;24.90;;;;;;;7.49;51.63;100985.05;130115;1270;99221;-73
2022/03/26 00:36:34;;;;;;;40.50;21.50;;;;;;;7.46;51.53;100982.23;130141;1270;98056;-72
2022/03/26 00:39:39;;;;;;;37.80;22.10;;;;;;;7.44;51.54;100975.50;130137;1270;99193;-72
2022/03/26 00:42:41;;;;;;;34.00;21.30;;;;;;;7.41;51.39;100970.41;130221;1270;97975;-73
2022/03/26 00:45:44;;;;;;;41.10;21.40;;;;;;;7.38;51.61;100968.55;130203;1270;98624;-73
2022/03/26 00:48:47;;;;;;;36.80;23.20;;;;;;;7.34;51.47;100972.33;130129;1270;98640;-74
2022/03/26 00:51:50;;;;;;;44.50;23.80;;;;;;;7.31;51.77;100970.33;130080;1270;98497;-74
2022/03/26 00:54:53;;;;;;;37.70;23.70;;;;;;;7.28;51.84;100967.30;130103;1270;97982;-74
2022/03/26 00:57:55;;;;;;;40.60;24.10;;;;;;;7.24;51.86;100964.23;130101;1270;98001;-73
2022/03/26 01:00:58;;;;;;;42.40;24.60;;;;;;;7.20;52.29;100958.92;130192;1270;98612;-73
2022/03/26 01:04:01;;;;;;;40.20;23.40;;;;;;;7.18;52.11;100961.37;130108;1270;98075;-73
2022/03/26 01:07:05;;;;;;;42.00;23.90;;;;;;;7.15;52.17;100957.53;130185;1270;97982;-72
2022/03/26 01:10:09;;;;;;;43.20;23.90;;;;;;;7.11;52.29;100953.55;130219;1270;97999;-73
2022/03/26 01:13:12;;;;;;;44.30;24.80;;;;;;;7.08;51.99;100953.79;130244;1270;97967;-73
2022/03/26 01:16:15;;;;;;;44.10;24.80;;;;;;;7.05;52.43;100948.00;130223;1270;98394;-72
2022/03/26 01:19:18;;;;;;;44.10;25.30;;;;;;;7.01;52.33;100947.52;130160;1270;99039;-72
2022/03/26 01:22:21;;;;;;;43.60;24.40;;;;;;;6.99;52.55;100948.07;130180;1270;97990;-72
2022/03/26 01:25:24;;;;;;;40.00;23.10;;;;;;;6.95;52.50;100943.05;130195;1270;98059;-73
2022/03/26 01:28:27;;;;;;;43.90;25.60;;;;;;;6.92;52.53;100940.27;130135;1270;98055;-73
2022/03/26 01:31:30;;;;;;;42.30;25.00;;;;;;;6.91;52.68;100939.13;130180;1270;99159;-72
2022/03/26 01:34:33;;;;;;;44.80;25.20;;;;;;;6.89;52.71;100939.29;130136;1270;98081;-72
2022/03/26 01:37:36;;;;;;;40.10;24.40;;;;;;;6.86;52.93;100938.91;130161;1270;98758;-75
2022/03/26 01:40:38;;;;;;;42.90;25.20;;;;;;;6.84;52.98;100933.04;130139;1270;99159;-73
2022/03/26 01:43:41;;;;;;;43.50;25.00;;;;;;;6.82;52.86;100927.36;130129;1270;98020;-73
2022/03/26 01:46:53;;;;;;;46.50;25.30;;;;;;;6.80;53.10;100929.50;130149;1270;98073;-73
2022/03/26 01:49:56;;;;;;;46.40;25.50;;;;;;;6.78;53.43;100929.29;130150;1270;97967;-73
2022/03/26 01:52:59;;;;;;;45.40;25.30;;;;;;;6.76;53.55;100923.20;130188;1271;98417;-72
2022/03/26 01:56:02;;;;;;;44.20;25.20;;;;;;;6.75;53.83;100918.01;130245;1270;97988;-73
2022/03/26 01:59:07;;;;;;;44.30;26.10;;;;;;;6.73;53.55;100915.64;130231;1270;99169;-72
2022/03/26 02:02:10;;;;;;;44.70;25.70;;;;;;;6.73;53.69;100922.75;130300;1270;98810;-70
2022/03/26 02:05:15;;;;;;;42.30;26.10;;;;;;;6.71;53.94;100924.45;130237;1270;99039;-72
2022/03/26 02:08:17;;;;;;;43.40;25.10;;;;;;;6.70;54.13;100926.83;130326;1270;97976;-71
2022/03/26 02:11:20;;;;;;;42.60;25.80;;;;;;;6.70;54.27;100919.05;130270;1270;98686;-72
2022/03/26 02:14:24;;;;;;;44.10;24.90;;;;;;;6.70;53.93;100918.16;130285;1270;97995;-72
2022/03/26 02:17:27;;;;;;;46.90;25.10;;;;;;;6.70;54.22;100911.27;130231;1270;99146;-72
2022/03/26 02:20:31;;;;;;;46.20;24.30;;;;;;;6.70;54.46;100906.84;130395;1268;98053;-72
2022/03/26 02:23:33;;;;;;;45.40;25.10;;;;;;;6.71;54.72;100905.37;130294;1270;97979;-72
2022/03/26 02:26:37;;;;;;;41.70;24.00;;;;;;;6.73;54.53;100910.23;130421;1271;98054;-73
2022/03/26 02:29:40;;;;;;;37.20;22.10;;;;;;;6.74;54.63;100908.57;130341;1271;98058;-72
2022/03/26 02:32:42;;;;;;;44.50;24.30;;;;;;;6.74;54.77;100910.84;130341;1271;98662;-71
2022/03/26 02:35:45;;;;;;;37.00;23.00;;;;;;;6.74;54.78;100903.21;130359;1270;99169;-72
2022/03/26 02:38:48;;;;;;;41.30;22.80;;;;;;;6.75;55.01;100902.27;130365;1270;98662;-74
2022/03/26 02:41:51;;;;;;;40.10;23.00;;;;;;;6.76;54.93;100899.00;130412;1269;98407;-73
2022/03/26 02:44:54;;;;;;;40.40;23.10;;;;;;;6.76;54.94;100888.52;130395;1269;99149;-73
2022/03/26 02:47:57;;;;;;;40.30;21.10;;;;;;;6.76;55.13;100882.89;130235;1270;99149;-71
2022/03/26 02:50:59;;;;;;;40.40;20.90;;;;;;;6.78;55.37;100876.05;130352;1270;97966;-72
2022/03/26 02:54:02;;;;;;;40.70;21.00;;;;;;;6.83;55.58;100873.02;130407;1270;98786;-72
2022/03/26 02:57:05;;;;;;;43.40;20.80;;;;;;;6.89;55.27;100865.86;130409;1269;98001;-72
2022/03/26 03:00:13;;;;;;;37.70;21.20;;;;;;;6.97;55.44;100856.38;130373;1270;99270;-72
2022/03/26 03:03:16;;;;;;;40.40;22.00;;;;;;;7.04;55.39;100853.41;130368;1270;99041;-71
2022/03/26 03:06:19;;;;;;;37.30;21.00;;;;;;;7.09;55.45;100850.88;130299;1270;98754;-71
2022/03/26 03:09:21;;;;;;;39.70;22.20;;;;;;;7.12;55.63;100852.45;130423;1270;99578;-70
2022/03/26 03:12:25;;;;;;;37.20;21.10;;;;;;;7.14;55.38;100846.13;130334;1270;97975;-71
2022/03/26 03:15:28;;;;;;;40.40;20.30;;;;;;;7.15;55.61;100843.05;130378;1270;99152;-71
2022/03/26 03:18:31;;;;;;;36.90;20.50;;;;;;;7.14;55.38;100839.21;130267;1269;98672;-71
2022/03/26 03:21:33;;;;;;;36.10;20.40;;;;;;;7.14;55.81;100835.37;130031;1270;97970;-71
2022/03/26 03:24:36;;;;;;;36.80;20.20;;;;;;;7.13;55.58;100830.79;130039;1270;98729;-71
2022/03/26 03:27:40;;;;;;;38.20;20.80;;;;;;;7.13;56.01;100824.81;130353;1270;97985;-71
2022/03/26 03:30:43;;;;;;;38.00;21.40;;;;;;;7.13;56.13;100825.11;130431;1270;97972;-71
2022/03/26 03:33:46;;;;;;;33.70;20.20;;;;;;;7.12;55.87;100814.45;130346;1270;98942;-71
2022/03/26 03:36:49;;;;;;;36.00;19.80;;;;;;;7.12;56.16;100802.56;130458;1269;99037;-71
2022/03/26 03:39:52;;;;;;;34.80;19.60;;;;;;;7.12;55.78;100799.04;130411;1268;98008;-71
2022/03/26 03:42:54;;;;;;;35.20;19.90;;;;;;;7.11;56.73;100797.52;130221;1270;98758;-71
2022/03/26 03:45:57;;;;;;;39.30;21.20;;;;;;;7.13;56.63;100798.64;130305;1270;97978;-71
2022/03/26 03:49:00;;;;;;;37.80;20.40;;;;;;;7.14;56.33;100803.63;130334;1270;98516;-71
2022/03/26 03:52:04;;;;;;;37.50;20.10;;;;;;;7.14;56.69;100806.65;130329;1270;97994;-71
2022/03/26 03:55:08;;;;;;;38.00;20.90;;;;;;;7.16;56.28;100799.09;130360;1270;98523;-71
2022/03/26 03:58:11;;;;;;;37.10;19.90;;;;;;;7.16;56.68;100803.29;130415;1270;98690;-72
2022/03/26 04:01:14;;;;;;;37.10;20.60;;;;;;;7.16;56.81;100799.41;130352;1270;99094;-72
2022/03/26 04:04:16;;;;;;;42.10;21.70;;;;;;;7.18;57.07;100796.82;130290;1270;97991;-71
2022/03/26 04:07:19;;;;;;;36.80;21.90;;;;;;;7.19;56.69;100799.89;130367;1270;97976;-71
2022/03/26 04:10:22;;;;;;;41.80;21.70;;;;;;;7.21;57.24;100795.34;130351;1269;97989;-71
2022/03/26 04:13:25;;;;;;;39.50;21.90;;;;;;;7.24;57.20;100793.17;130390;1270;99190;-72
2022/03/26 04:16:27;;;;;;;41.10;22.60;;;;;;;7.24;57.02;100795.25;130381;1270;98069;-72
2022/03/26 04:19:30;;;;;;;38.90;22.00;;;;;;;7.25;56.65;100794.30;130387;1270;99107;-72
2022/03/26 04:22:33;;;;;;;38.90;21.90;;;;;;;7.24;56.93;100790.88;130436;1269;98051;-72
2022/03/26 04:25:35;;;;;;;41.40;22.80;;;;;;;7.24;57.09;100782.89;130434;1271;98980;-72
2022/03/26 04:28:38;;;;;;;45.10;22.40;;;;;;;7.25;57.22;100779.30;130334;1270;99700;-72
2022/03/26 04:31:41;;;;;;;39.30;21.20;;;;;;;7.26;56.99;100780.27;130313;1270;98007;-71
2022/03/26 04:34:44;;;;;;;40.60;22.70;;;;;;;7.25;56.88;100775.04;130361;1270;99142;-72
2022/03/26 04:37:46;;;;;;;108.20;61.50;;;;;;;7.24;56.92;100771.38;130304;1270;98067;-72
2022/03/26 04:40:50;;;;;;;280.20;137.20;;;;;;;7.25;56.98;100770.58;130363;1270;99191;-71
2022/03/26 04:43:53;;;;;;;68.20;34.60;;;;;;;7.25;57.63;100774.70;130365;1269;97966;-72
2022/03/26 04:46:55;;;;;;;51.40;27.40;;;;;;;7.26;57.46;100773.00;130364;1269;99073;-72
2022/03/26 04:49:58;;;;;;;50.70;26.10;;;;;;;7.26;57.10;100776.52;130333;1270;97974;-72
2022/03/26 04:53:00;;;;;;;77.30;38.80;;;;;;;7.26;57.38;100773.73;130380;1270;98398;-72
2022/03/26 04:56:04;;;;;;;54.70;29.20;;;;;;;7.26;57.72;100774.21;130245;1269;99079;-71
2022/03/26 04:59:06;;;;;;;53.00;26.00;;;;;;;7.30;57.59;100773.75;130309;1270;99172;-72
2022/03/26 05:02:09;;;;;;;46.60;26.20;;;;;;;7.37;58.10;100770.41;130358;1270;98766;-73
2022/03/26 05:05:13;;;;;;;47.90;25.90;;;;;;;7.45;57.79;100766.18;130456;1269;98039;-71
2022/03/26 05:08:17;;;;;;;44.90;25.20;;;;;;;7.53;57.63;100768.08;130394;1270;116857;-72
2022/03/26 05:11:20;;;;;;;43.70;25.40;;;;;;;7.59;57.50;100763.70;130327;1270;111995;-71
2022/03/26 05:14:22;;;;;;;42.70;25.30;;;;;;;7.63;57.33;100763.35;130313;1270;112834;-71
2022/03/26 05:17:25;;;;;;;47.30;26.40;;;;;;;7.66;57.18;100757.11;130348;1269;97976;-72
2022/03/26 05:20:28;;;;;;;362.10;147.70;;;;;;;7.68;57.40;100753.94;130284;1268;98742;-71
2022/03/26 05:23:30;;;;;;;104.00;63.40;;;;;;;7.71;57.64;100750.21;130316;1269;97994;-72
2022/03/26 05:26:33;;;;;;;49.80;29.50;;;;;;;7.74;57.48;100747.96;130297;1268;98478;-72
2022/03/26 05:29:36;;;;;;;45.40;26.90;;;;;;;7.79;57.74;100750.45;130322;1270;98039;-71
2022/03/26 05:32:38;;;;;;;43.10;25.50;;;;;;;7.84;57.87;100748.46;130386;1270;99159;-72
2022/03/26 05:35:41;;;;;;;48.90;27.10;;;;;;;7.87;57.92;100746.58;130259;1270;108786;-71
2022/03/26 05:38:43;;;;;;;43.70;26.00;;;;;;;7.91;58.06;100747.91;130282;1270;98936;-70
2022/03/26 05:41:47;;;;;;;45.10;27.70;;;;;;;7.92;57.94;100748.66;130076;1269;99193;-70
2022/03/26 05:44:50;;;;;;;42.00;25.30;;;;;;;7.95;58.06;100753.95;130206;1270;108755;-68
2022/03/26 05:47:57;;;;;;;43.70;26.90;;;;;;;7.97;58.27;100746.16;130084;1267;98630;-71
2022/03/26 05:51:00;;;;;;;47.20;28.10;;;;;;;8.00;58.43;100741.86;130200;1267;108706;-70
2022/03/26 05:54:02;;;;;;;43.20;26.70;;;;;;;8.03;58.50;100742.82;130111;1267;99160;-71
2022/03/26 05:57:06;;;;;;;46.60;26.00;;;;;;;8.07;58.46;100738.60;130330;1268;99214;-71
2022/03/26 06:00:11;;;;;;;42.70;26.00;;;;;;;8.14;58.37;100735.54;130206;1268;97986;-72
2022/03/26 06:03:13;;;;;;;43.80;26.30;;;;;;;8.21;58.59;100731.43;130348;1268;109499;-72
2022/03/26 06:06:16;;;;;;;44.20;26.60;;;;;;;8.27;58.72;100729.52;130289;1267;98087;-71
2022/03/26 06:09:19;;;;;;;45.70;27.80;;;;;;;8.34;58.50;100726.70;130212;1268;99689;-73
2022/03/26 06:12:22;;;;;;;177.80;78.20;;;;;;;8.42;58.57;100728.69;130302;1268;98082;-72
2022/03/26 06:15:24;;;;;;;53.20;28.80;;;;;;;8.50;58.61;100718.66;130356;1268;98762;-72
2022/03/26 06:18:27;;;;;;;50.80;28.40;;;;;;;8.57;58.38;100718.23;130348;1268;98746;-72
2022/03/26 06:21:30;;;;;;;46.20;26.50;;;;;;;8.65;58.54;100713.27;130452;1267;99210;-72
2022/03/26 06:24:32;;;;;;;44.30;26.70;;;;;;;8.74;58.41;100708.64;130292;1270;98059;-70
2022/03/26 06:27:35;;;;;;;45.70;25.90;;;;;;;8.82;58.62;100711.63;130031;1269;98389;-70
2022/03/26 06:30:38;;;;;;;45.20;24.70;;;;;;;8.90;58.38;100712.23;130069;1269;97988;-69
2022/03/26 06:33:40;;;;;;;43.30;25.70;;;;;;;8.99;58.67;100715.35;130007;1270;98590;-70
2022/03/26 06:36:43;;;;;;;56.40;33.30;;;;;;;9.09;58.67;100707.98;130119;1270;99175;-72
2022/03/26 06:39:46;;;;;;;46.20;27.40;;;;;;;9.18;58.48;100704.14;130344;1269;99178;-72
2022/03/26 06:42:48;;;;;;;54.10;34.90;;;;;;;9.27;58.63;100699.82;130294;1270;97982;-73
2022/03/26 06:45:51;;;;;;;321.00;181.00;;;;;;;9.37;58.52;100701.29;130303;1270;99149;-72
2022/03/26 06:48:53;;;;;;;61.60;34.50;;;;;;;9.45;58.41;100695.79;130257;1270;97992;-72
2022/03/26 06:51:57;;;;;;;41.90;24.00;;;;;;;9.54;58.73;100702.95;130334;1269;98621;-72
2022/03/26 06:55:02;;;;;;;33.60;20.40;;;;;;;9.65;58.45;100699.36;130296;1270;97972;-71
2022/03/26 06:58:05;;;;;;;32.00;19.80;;;;;;;9.76;58.17;100696.73;130254;1269;98803;-72
2022/03/26 07:01:08;;;;;;;31.00;19.00;;;;;;;9.88;58.21;100693.44;130274;1268;98620;-71
2022/03/26 07:04:10;;;;;;;29.60;18.00;;;;;;;9.99;58.32;100690.63;130308;1268;98761;-74
2022/03/26 07:07:14;;;;;;;36.40;17.80;;;;;;;10.13;58.37;100684.77;130292;1269;98053;-73
2022/03/26 07:10:17;;;;;;;39.40;19.80;;;;;;;10.32;58.44;100697.02;130217;1270;97973;-73
2022/03/26 07:13:19;;;;;;;27.00;17.20;;;;;;;10.56;57.88;100700.05;130564;1270;97988;-73
2022/03/26 07:16:22;;;;;;;28.60;16.50;;;;;;;10.66;57.94;100688.78;130313;1269;99159;-74
2022/03/26 07:19:24;;;;;;;27.70;16.80;;;;;;;10.77;57.56;100694.55;130316;1270;98771;-74
2022/03/26 07:22:27;;;;;;;26.10;16.20;;;;;;;10.86;57.76;100691.21;130290;1269;98780;-73
2022/03/26 07:25:30;;;;;;;23.40;15.60;;;;;;;10.97;57.65;100680.89;130279;1269;98768;-73
2022/03/26 07:28:33;;;;;;;23.50;15.00;;;;;;;11.09;57.42;100683.16;130308;1270;97966;-73
2022/03/26 07:31:36;;;;;;;22.60;14.30;;;;;;;11.21;57.34;100685.27;130351;1269;97990;-73
2022/03/26 07:34:38;;;;;;;46.60;15.00;;;;;;;11.32;56.98;100690.77;130397;1269;98757;-72
2022/03/26 07:37:43;;;;;;;22.20;12.70;;;;;;;11.45;56.42;100672.10;130260;1270;112258;-72
2022/03/26 07:40:47;;;;;;;27.00;14.60;;;;;;;11.56;56.20;100674.74;130338;1270;112302;-72
2022/03/26 07:43:50;;;;;;;25.00;12.70;;;;;;;11.65;55.66;100671.23;130297;1269;112269;-73
2022/03/26 07:46:52;;;;;;;28.00;13.60;;;;;;;11.70;55.91;100666.42;130273;1270;97989;-73
2022/03/26 07:49:55;;;;;;;23.20;13.00;;;;;;;11.77;55.41;100666.81;130284;1268;99064;-75
2022/03/26 07:52:58;;;;;;;21.80;13.10;;;;;;;11.79;55.64;100659.26;130344;1269;98538;-80
2022/03/26 07:56:00;;;;;;;28.30;12.90;;;;;;;11.78;55.24;100666.13;130504;1269;98085;-80
2022/03/26 07:59:03;;;;;;;26.50;11.80;;;;;;;11.71;54.85;100659.22;130484;1270;98428;-79
2022/03/26 08:02:06;;;;;;;27.50;12.40;;;;;;;11.68;55.34;100669.27;130423;1268;98142;-73
2022/03/26 08:05:09;;;;;;;28.30;12.50;;;;;;;11.63;54.71;100672.27;130440;1268;98313;-72
2022/03/26 08:08:12;;;;;;;26.60;12.70;;;;;;;11.62;55.09;100670.59;130444;1267;98385;-74
2022/03/26 08:11:15;;;;;;;23.70;12.10;;;;;;;11.64;54.93;100664.48;130390;1268;98742;-72
2022/03/26 08:14:18;;;;;;;23.40;12.30;;;;;;;11.74;54.74;100668.50;130385;1267;98620;-71
2022/03/26 08:17:20;;;;;;;35.30;12.40;;;;;;;11.83;55.05;100673.71;130340;1268;98783;-72
2022/03/26 08:20:23;;;;;;;20.20;11.90;;;;;;;11.87;54.74;100680.30;130326;1267;108655;-73
2022/03/26 08:23:26;;;;;;;20.80;12.20;;;;;;;11.90;54.74;100670.25;130477;1268;107106;-74
2022/03/26 08:26:29;;;;;;;21.80;12.00;;;;;;;11.94;54.67;100674.14;130512;1268;97964;-76
2022/03/26 08:29:32;;;;;;;21.50;12.70;;;;;;;11.95;54.90;100671.87;130285;1270;98013;-80
2022/03/26 08:32:35;;;;;;;23.40;11.70;;;;;;;12.04;54.84;100658.46;130370;1269;98005;-72
2022/03/26 08:35:39;;;;;;;20.80;12.00;;;;;;;12.13;54.41;100655.05;130259;1270;99246;-71
2022/03/26 08:38:45;;;;;;;25.30;12.90;;;;;;;12.18;54.47;100660.80;130382;1270;107133;-74
2022/03/26 08:41:47;;;;;;;20.40;12.50;;;;;;;12.19;53.90;100658.94;130423;1267;107746;-73
2022/03/26 08:44:51;;;;;;;46.80;23.80;;;;;;;12.23;53.82;100656.20;130564;1268;98600;-73
2022/03/26 08:47:54;;;;;;;22.20;13.40;;;;;;;12.29;54.04;100661.29;130522;1268;109116;-72
2022/03/26 08:50:57;;;;;;;23.30;11.90;;;;;;;12.39;53.89;100654.13;130684;1268;108351;-73
2022/03/26 08:54:00;;;;;;;42.20;20.10;;;;;;;12.44;53.11;100653.55;130509;1268;98773;-72
2022/03/26 08:57:04;;;;;;;32.00;19.00;;;;;;;12.53;53.55;100641.95;130622;1268;108756;-76
2022/03/26 09:00:13;;;;;;;23.50;11.40;;;;;;;12.70;53.02;100653.31;130309;1268;108721;-73
2022/03/26 09:03:19;;;;;;;19.40;10.90;;;;;;;12.87;52.19;100650.48;130276;1268;108866;-74
2022/03/26 09:06:22;;;;;;;29.20;16.90;;;;;;;13.15;52.66;100639.33;130176;1267;108654;-72
2022/03/26 09:09:25;;;;;;;22.00;11.20;;;;;;;13.48;52.02;100646.77;130406;1268;98490;-73
2022/03/26 09:12:30;;;;;;;26.70;11.10;;;;;;;13.67;51.49;100663.27;130374;1267;99096;-74
2022/03/26 09:15:33;;;;;;;25.90;10.50;;;;;;;13.68;50.27;100664.89;130534;1268;107965;-76
2022/03/26 09:18:36;;;;;;;21.10;11.70;;;;;;;13.66;49.63;100661.20;130350;1268;98761;-72
2022/03/26 09:21:38;;;;;;;26.50;12.70;;;;;;;13.73;50.16;100656.89;130433;1267;99148;-73
2022/03/26 09:24:42;;;;;;;35.20;18.00;;;;;;;13.79;49.66;100652.28;130424;1268;98030;-73
2022/03/26 09:27:44;;;;;;;25.50;11.30;;;;;;;13.90;50.69;100645.96;133468;1259;97966;-74
2022/03/26 09:30:47;;;;;;;32.50;17.30;;;;;;;14.03;50.02;100641.10;130697;1265;98850;-76
2022/03/26 09:33:50;;;;;;;19.20;12.00;;;;;;;14.11;50.10;100641.73;130842;1268;99168;-75
2022/03/26 09:36:53;;;;;;;23.70;11.70;;;;;;;14.23;49.49;100634.63;130793;1265;97984;-74
2022/03/26 09:39:56;;;;;;;28.00;10.30;;;;;;;14.42;49.42;100628.95;130631;1265;99179;-73
2022/03/26 09:42:59;;;;;;;18.90;9.60;;;;;;;14.60;48.87;100635.27;130532;1265;98728;-75
2022/03/26 09:46:02;;;;;;;25.30;9.50;;;;;;;14.68;48.33;100634.60;130596;1265;98719;-77
2022/03/26 09:49:04;;;;;;;20.60;8.60;;;;;;;14.67;48.31;100632.71;130621;1268;97994;-74
2022/03/26 09:52:07;;;;;;;24.80;9.90;;;;;;;14.67;47.86;100632.85;130648;1265;97980;-74
2022/03/26 09:55:11;;;;;;;20.40;8.90;;;;;;;14.60;48.28;100627.82;130826;1265;97976;-73
2022/03/26 09:58:14;;;;;;;23.40;10.60;;;;;;;14.48;46.57;100629.73;130712;1265;99069;-74
2022/03/26 10:01:17;;;;;;;22.90;10.50;;;;;;;14.29;47.41;100628.98;130635;1265;99146;-75
2022/03/26 10:04:21;;;;;;;19.60;9.70;;;;;;;14.22;47.48;100623.13;130564;1265;97988;-74
2022/03/26 10:07:31;;;;;;;18.20;10.10;;;;;;;14.12;47.88;100624.20;130509;1265;108742;-74
2022/03/26 10:10:44;;;;;;;29.70;10.80;;;;;;;14.12;47.68;100624.75;130546;1265;108673;-75
2022/03/26 10:13:48;;;;;;;21.70;10.40;;;;;;;14.02;47.86;100625.16;130507;1265;108726;-73
2022/03/26 10:16:52;;;;;;;23.10;10.40;;;;;;;13.94;47.82;100636.02;130654;1265;108840;-74
2022/03/26 10:19:56;;;;;;;22.60;10.50;;;;;;;13.88;48.07;100634.20;130583;1265;108109;-76
2022/03/26 10:22:59;;;;;;;21.40;10.10;;;;;;;13.85;48.30;100629.00;130727;1265;109024;-74
2022/03/26 10:26:06;;;;;;;24.60;11.50;;;;;;;13.83;48.21;100627.55;130543;1265;98538;-73
2022/03/26 10:29:10;;;;;;;29.10;17.20;;;;;;;13.87;48.03;100630.50;130605;1265;109715;-73
2022/03/26 10:35:34;;;;;;;21.40;9.90;;;;;;;13.85;47.90;100626.59;130701;1265;108863;-74
2022/03/26 10:38:42;;;;;;;21.10;9.60;;;;;;;13.84;48.10;100624.94;130623;1265;98728;-74
2022/03/26 10:41:47;;;;;;;18.30;9.70;;;;;;;13.83;48.16;100625.77;130522;1265;108598;-75
2022/03/26 10:44:50;;;;;;;23.30;10.50;;;;;;;13.80;48.29;100624.96;130451;1267;108155;-73
2022/03/26 10:47:55;;;;;;;21.70;10.10;;;;;;;13.83;48.31;100625.91;130600;1267;98260;-70
2022/03/26 10:50:59;;;;;;;38.00;13.90;;;;;;;13.83;48.59;100622.58;130277;1268;108490;-74
2022/03/26 10:54:09;;;;;;;22.40;9.80;;;;;;;13.81;48.99;100632.45;130697;1267;108680;-73
2022/03/26 10:57:12;;;;;;;21.80;9.00;;;;;;;13.72;49.56;100634.98;130464;1268;109047;-74
2022/03/26 11:00:17;;;;;;;23.00;10.20;;;;;;;13.63;50.30;100638.64;130497;1267;108885;-75
2022/03/26 11:03:20;;;;;;;41.90;15.80;;;;;;;13.54;51.12;100643.71;130663;1268;108963;-73
2022/03/26 11:06:25;;;;;;;21.80;10.30;;;;;;;13.46;51.30;100639.05;130666;1265;98426;-72
2022/03/26 11:09:29;;;;;;;18.30;9.90;;;;;;;13.39;52.05;100646.50;130709;1265;107442;-72
2022/03/26 11:12:33;;;;;;;20.30;10.40;;;;;;;13.36;52.45;100647.73;130479;1265;108675;-72
2022/03/26 11:15:42;;;;;;;20.20;10.90;;;;;;;13.41;51.75;100650.56;130484;1265;108768;-72
2022/03/26 11:18:56;;;;;;;20.30;10.90;;;;;;;13.43;52.88;100655.23;130476;1265;108753;-73
2022/03/26 11:22:35;;;;;;;23.10;11.90;;;;;;;13.13;58.85;100675.49;130555;1265;107420;-73
2022/03/26 11:25:50;;;;;;;17.90;11.00;;;;;;;12.73;59.68;100675.05;130724;1265;108692;-73
2022/03/26 11:29:09;;;;;;;22.20;12.80;;;;;;;12.39;64.83;100685.10;130611;1265;108678;-73
2022/03/26 11:32:20;;;;;;;21.50;12.40;;;;;;;11.95;66.82;100694.70;130754;1265;108831;-72
2022/03/26 11:35:23;;;;;;;23.10;13.50;;;;;;;11.64;68.47;100699.81;130558;1264;108945;-73
2022/03/26 11:38:28;;;;;;;21.00;13.20;;;;;;;11.40;68.29;100700.46;130558;1265;99137;-72
2022/03/26 11:41:33;;;;;;;23.20;13.50;;;;;;;11.24;70.67;100703.48;130603;1268;108618;-73
2022/03/26 11:44:36;;;;;;;24.40;16.10;;;;;;;11.07;71.41;100706.14;130571;1265;109154;-72
2022/03/26 11:51:16;;;;;;;24.50;14.30;;;;;;;10.63;75.46;100712.41;130428;1268;107721;-73
2022/03/26 11:54:19;;;;;;;19.90;14.50;;;;;;;10.46;74.03;100722.70;130583;1268;109106;-74
2022/03/26 11:57:22;;;;;;;26.20;17.40;;;;;;;10.27;76.48;100723.63;130807;1265;98481;-73
2022/03/26 12:00:25;;;;;;;27.40;18.10;;;;;;;10.08;77.35;100731.96;130473;1266;108731;-73
2022/03/26 12:03:31;;;;;;;30.00;18.60;;;;;;;9.95;76.78;100725.60;130549;1268;108674;-73
2022/03/26 12:06:42;;;;;;;30.60;21.10;;;;;;;9.91;78.22;100725.89;130509;1267;108825;-72
2022/03/26 12:09:45;;;;;;;29.60;21.10;;;;;;;9.90;75.75;100724.83;130802;1266;107001;-73
2022/03/26 12:12:50;;;;;;;33.90;23.20;;;;;;;10.02;75.53;100718.94;130852;1266;97955;-72
2022/03/26 12:16:03;;;;;;;33.50;22.10;;;;;;;10.03;76.54;100727.36;130659;1266;108609;-72
2022/03/26 12:19:06;;;;;;;32.70;21.80;;;;;;;9.98;77.14;100723.65;130479;1267;108786;-73
2022/03/26 12:22:20;;;;;;;31.90;21.30;;;;;;;9.97;76.46;100719.80;130528;1265;153333;-73
2022/03/26 12:25:34;;;;;;;34.10;22.70;;;;;;;10.00;75.29;100720.56;130749;1265;108891;-73
2022/03/26 12:28:39;;;;;;;37.70;23.30;;;;;;;10.08;75.58;100719.73;130666;1265;108675;-74
2022/03/26 12:31:43;;;;;;;35.60;22.30;;;;;;;10.09;75.20;100717.99;130705;1267;107559;-73
2022/03/26 12:34:54;;;;;;;32.70;21.10;;;;;;;10.15;74.75;100725.27;130444;1266;97949;-73
2022/03/26 12:37:57;;;;;;;34.20;23.30;;;;;;;10.20;73.94;100731.05;130616;1268;109064;-71
2022/03/26 12:41:02;;;;;;;36.70;24.40;;;;;;;10.24;73.85;100725.69;130442;1265;99168;-72
2022/03/26 12:44:05;;;;;;;39.30;25.20;;;;;;;10.26;73.88;100734.81;130536;1267;108753;-73
2022/03/26 12:47:08;;;;;;;37.10;23.40;;;;;;;10.27;73.51;100729.52;130451;1267;108865;-73
2022/03/26 12:50:11;;;;;;;33.30;21.20;;;;;;;10.30;72.92;100737.05;130663;1268;108619;-74
2022/03/26 12:53:15;;;;;;;32.90;22.70;;;;;;;10.43;71.75;100735.23;131111;1265;98317;-74
2022/03/26 12:56:18;;;;;;;36.60;23.50;;;;;;;10.55;71.48;100735.13;130613;1267;108667;-74
2022/03/26 12:59:21;;;;;;;37.90;21.80;;;;;;;10.68;71.08;100735.08;130534;1265;97984;-74
2022/03/26 13:02:24;;;;;;;30.70;19.20;;;;;;;10.74;70.67;100733.64;130515;1268;98036;-73
2022/03/26 13:05:29;;;;;;;60.10;33.50;;;;;;;10.74;69.85;100739.48;130496;1268;98042;-73
2022/03/26 13:08:32;;;;;;;37.00;23.80;;;;;;;10.83;69.90;100730.08;130433;1266;108663;-73
2022/03/26 13:11:36;;;;;;;39.20;23.00;;;;;;;10.97;69.37;100734.30;130508;1266;98157;-73
2022/03/26 13:14:47;;;;;;;33.80;20.30;;;;;;;11.01;69.31;100734.65;130493;1267;108799;-74
2022/03/26 13:17:49;;;;;;;35.30;19.90;;;;;;;11.04;69.00;100736.19;130508;1268;108985;-75
2022/03/26 13:20:52;;;;;;;40.90;22.80;;;;;;;11.04;68.95;100737.57;130597;1268;99140;-75
2022/03/26 13:23:58;;;;;;;33.90;19.10;;;;;;;11.05;69.06;100739.41;130583;1265;99197;-74
2022/03/26 13:27:03;;;;;;;28.40;18.50;;;;;;;11.13;69.13;100740.88;130483;1268;108822;-74
2022/03/26 13:30:14;;;;;;;28.80;18.80;;;;;;;11.21;68.30;100738.13;130527;1266;108692;-74
2022/03/26 13:33:19;;;;;;;27.50;17.80;;;;;;;11.23;68.00;100740.81;130635;1265;108089;-75
2022/03/26 13:36:30;;;;;;;30.00;18.80;;;;;;;11.20;68.07;100741.61;130634;1265;109005;-74
2022/03/26 13:39:32;;;;;;;32.90;21.10;;;;;;;11.08;67.75;100738.24;130681;1265;108646;-74
2022/03/26 13:42:39;;;;;;;24.90;16.90;;;;;;;10.98;67.65;100746.66;130533;1265;99130;-74
2022/03/26 13:45:44;;;;;;;26.90;17.00;;;;;;;10.97;67.36;100742.36;130529;1265;109025;-74
2022/03/26 13:48:48;;;;;;;25.80;16.50;;;;;;;11.02;67.74;100752.15;130542;1265;108290;-75
2022/03/26 13:51:51;;;;;;;26.40;17.10;;;;;;;11.03;67.11;100755.33;130503;1265;109124;-72
2022/03/26 13:54:56;;;;;;;26.10;16.70;;;;;;;10.90;66.88;100753.82;130787;1265;98747;-71
2022/03/26 13:58:02;;;;;;;26.30;17.40;;;;;;;10.72;66.93;100756.80;130597;1265;108722;-72